sensor_id;sensor_type;location;lat;lon;timestamp;P1;P2;P0
54021;PMS7003;39936;51.058;17.220;2024-02-21T00:00:19;0;0;0
54021;PMS7003;39936;51.058;17.220;2024-02-21T00:04:09;3;3;2
54021;PMS7003;39936;51.058;17.220;2024-02-21T00:07:28;0;0;0
54021;PMS7003;39936;51.058;17.220;2024-02-21T00:10:53;5;5;5
54021;PMS7003;39936;51.058;17.220;2024-02-21T00:14:56;0;0;0
54021;PMS7003;39936;51.058;17.220;2024-02-21T00:19:01;6;6;6
54021;PMS7003;39936;51.058;17.220;2024-02-21T00:23:00;5;5;5
54021;PMS7003;39936;51.058;17.220;2024-02-21T00:26:37;2;2;2
54021;PMS7003;39936;51.058;17.220;2024-02-21T00:30:19;0;0;0
54021;PMS7003;39936;51.058;17.220;2024-02-21T00:33:58;3;3;3
54021;PMS7003;39936;51.058;17.220;2024-02-21T00:37:43;22;22;20
54021;PMS7003;39936;51.058;17.220;2024-02-21T00:41:23;63;60;57
54021;PMS7003;39936;51.058;17.220;2024-02-21T00:45:32;98;95;93
54021;PMS7003;39936;51.058;17.220;2024-02-21T00:48:52;49;48;45
54021;PMS7003;39936;51.058;17.220;2024-02-21T00:52:34;202;200;200
54021;PMS7003;39936;51.058;17.220;2024-02-21T00:56:44;34;34;29
54021;PMS7003;39936;51.058;17.220;2024-02-21T01:00:03;36;36;31
54021;PMS7003;39936;51.058;17.220;2024-02-21T01:03:50;81;80;76
54021;PMS7003;39936;51.058;17.220;2024-02-21T01:07:20;30;30;27
54021;PMS7003;39936;51.058;17.220;2024-02-21T01:11:03;34;32;28
54021;PMS7003;39936;51.058;17.220;2024-02-21T01:14:41;0;0;0
54021;PMS7003;39936;51.058;17.220;2024-02-21T01:21:58;0;0;0
54021;PMS7003;39936;51.058;17.220;2024-02-21T01:25:15;0;0;0
54021;PMS7003;39936;51.058;17.220;2024-02-21T01:28:35;0;0;0
54021;PMS7003;39936;51.058;17.220;2024-02-21T01:32:16;0;0;0
54021;PMS7003;39936;51.058;17.220;2024-02-21T01:35:40;0;0;0
54021;PMS7003;39936;51.058;17.220;2024-02-21T01:39:01;1;1;1
54021;PMS7003;39936;51.058;17.220;2024-02-21T01:42:19;14;13;11
54021;PMS7003;39936;51.058;17.220;2024-02-21T01:45:42;1;1;1
54021;PMS7003;39936;51.058;17.220;2024-02-21T01:49:03;1;1;1
54021;PMS7003;39936;51.058;17.220;2024-02-21T01:52:24;0;0;0
54021;PMS7003;39936;51.058;17.220;2024-02-21T01:55:45;1;1;1
54021;PMS7003;39936;51.058;17.220;2024-02-21T01:59:24;2;2;2
54021;PMS7003;39936;51.058;17.220;2024-02-21T02:02:58;5;5;5
54021;PMS7003;39936;51.058;17.220;2024-02-21T02:06:18;5;5;5
54021;PMS7003;39936;51.058;17.220;2024-02-21T02:09:37;4;4;4
54021;PMS7003;39936;51.058;17.220;2024-02-21T02:12:58;3;3;2
54021;PMS7003;39936;51.058;17.220;2024-02-21T02:17:23;0;0;0
54021;PMS7003;39936;51.058;17.220;2024-02-21T02:21:01;2;2;2
54021;PMS7003;39936;51.058;17.220;2024-02-21T02:24:27;4;4;4
54021;PMS7003;39936;51.058;17.220;2024-02-21T02:28:34;1;1;1
54021;PMS7003;39936;51.058;17.220;2024-02-21T02:31:53;2;2;2
54021;PMS7003;39936;51.058;17.220;2024-02-21T02:35:46;12;12;12
54021;PMS7003;39936;51.058;17.220;2024-02-21T02:39:30;31;29;26
54021;PMS7003;39936;51.058;17.220;2024-02-21T02:43:22;36;33;29
54021;PMS7003;39936;51.058;17.220;2024-02-21T02:47:10;32;31;28
54021;PMS7003;39936;51.058;17.220;2024-02-21T02:50:55;92;89;86
54021;PMS7003;39936;51.058;17.220;2024-02-21T02:54:44;74;71;68
54021;PMS7003;39936;51.058;17.220;2024-02-21T02:58:48;35;34;30
54021;PMS7003;39936;51.058;17.220;2024-02-21T03:02:13;34;30;26
54021;PMS7003;39936;51.058;17.220;2024-02-21T03:05:48;0;0;0
54021;PMS7003;39936;51.058;17.220;2024-02-21T03:09:39;1;1;1
54021;PMS7003;39936;51.058;17.220;2024-02-21T03:13:09;1;1;0
54021;PMS7003;39936;51.058;17.220;2024-02-21T03:16:28;3;3;3
54021;PMS7003;39936;51.058;17.220;2024-02-21T03:20:53;2;2;2
54021;PMS7003;39936;51.058;17.220;2024-02-21T03:24:18;3;3;3
54021;PMS7003;39936;51.058;17.220;2024-02-21T03:27:38;3;3;3
54021;PMS7003;39936;51.058;17.220;2024-02-21T03:31:03;3;3;3
54021;PMS7003;39936;51.058;17.220;2024-02-21T03:34:57;0;0;0
54021;PMS7003;39936;51.058;17.220;2024-02-21T03:38:36;3;3;3
54021;PMS7003;39936;51.058;17.220;2024-02-21T03:42:15;4;4;4
54021;PMS7003;39936;51.058;17.220;2024-02-21T03:45:38;7;7;6
54021;PMS7003;39936;51.058;17.220;2024-02-21T03:49:37;2;2;2
54021;PMS7003;39936;51.058;17.220;2024-02-21T03:52:56;1;1;1
54021;PMS7003;39936;51.058;17.220;2024-02-21T03:56:18;4;4;4
54021;PMS7003;39936;51.058;17.220;2024-02-21T03:59:37;2;2;2
54021;PMS7003;39936;51.058;17.220;2024-02-21T04:03:01;2;2;1
54021;PMS7003;39936;51.058;17.220;2024-02-21T04:06:24;4;4;4
54021;PMS7003;39936;51.058;17.220;2024-02-21T04:10:07;8;8;8
54021;PMS7003;39936;51.058;17.220;2024-02-21T04:13:47;7;7;7
54021;PMS7003;39936;51.058;17.220;2024-02-21T04:17:07;4;4;4
54021;PMS7003;39936;51.058;17.220;2024-02-21T04:20:35;10;10;10
54021;PMS7003;39936;51.058;17.220;2024-02-21T04:24:04;6;6;6
54021;PMS7003;39936;51.058;17.220;2024-02-21T04:27:30;21;21;21
54021;PMS7003;39936;51.058;17.220;2024-02-21T04:31:15;9;9;9
54021;PMS7003;39936;51.058;17.220;2024-02-21T04:34:41;7;7;7
54021;PMS7003;39936;51.058;17.220;2024-02-21T04:38:21;11;11;11
54021;PMS7003;39936;51.058;17.220;2024-02-21T04:41:42;9;9;8
54021;PMS7003;39936;51.058;17.220;2024-02-21T04:45:20;18;18;18
54021;PMS7003;39936;51.058;17.220;2024-02-21T04:48:41;9;9;9
54021;PMS7003;39936;51.058;17.220;2024-02-21T04:52:08;21;21;20
54021;PMS7003;39936;51.058;17.220;2024-02-21T04:55:47;11;11;11
54021;PMS7003;39936;51.058;17.220;2024-02-21T04:59:25;7;7;7
54021;PMS7003;39936;51.058;17.220;2024-02-21T05:02:50;23;23;22
54021;PMS7003;39936;51.058;17.220;2024-02-21T05:06:50;15;15;15
54021;PMS7003;39936;51.058;17.220;2024-02-21T05:10:11;12;12;12
54021;PMS7003;39936;51.058;17.220;2024-02-21T05:13:53;15;15;15
54021;PMS7003;39936;51.058;17.220;2024-02-21T05:17:14;23;23;22
54021;PMS7003;39936;51.058;17.220;2024-02-21T05:20:42;21;21;19
54021;PMS7003;39936;51.058;17.220;2024-02-21T05:24:34;14;14;14
54021;PMS7003;39936;51.058;17.220;2024-02-21T05:28:11;11;11;10
54021;PMS7003;39936;51.058;17.220;2024-02-21T05:35:30;10;10;9
54021;PMS7003;39936;51.058;17.220;2024-02-21T05:38:56;24;24;23
54021;PMS7003;39936;51.058;17.220;2024-02-21T05:42:18;18;18;18
54021;PMS7003;39936;51.058;17.220;2024-02-21T05:45:39;39;36;34
54021;PMS7003;39936;51.058;17.220;2024-02-21T05:49:06;16;16;16
54021;PMS7003;39936;51.058;17.220;2024-02-21T05:52:38;35;35;32
54021;PMS7003;39936;51.058;17.220;2024-02-21T05:59:38;19;19;19
54021;PMS7003;39936;51.058;17.220;2024-02-21T06:03:07;19;19;17
54021;PMS7003;39936;51.058;17.220;2024-02-21T06:06:49;21;21;21
54021;PMS7003;39936;51.058;17.220;2024-02-21T06:10:11;12;12;12
54021;PMS7003;39936;51.058;17.220;2024-02-21T06:13:38;16;16;16
54021;PMS7003;39936;51.058;17.220;2024-02-21T06:17:23;20;20;20
54021;PMS7003;39936;51.058;17.220;2024-02-21T06:21:08;26;26;23
54021;PMS7003;39936;51.058;17.220;2024-02-21T06:24:36;18;17;15
54021;PMS7003;39936;51.058;17.220;2024-02-21T06:28:02;12;12;12
54021;PMS7003;39936;51.058;17.220;2024-02-21T06:31:54;9;9;9
54021;PMS7003;39936;51.058;17.220;2024-02-21T06:35:23;11;11;11
54021;PMS7003;39936;51.058;17.220;2024-02-21T06:38:52;13;13;12
54021;PMS7003;39936;51.058;17.220;2024-02-21T06:42:18;14;14;13
54021;PMS7003;39936;51.058;17.220;2024-02-21T06:45:40;28;27;26
54021;PMS7003;39936;51.058;17.220;2024-02-21T06:49:36;32;29;25
54021;PMS7003;39936;51.058;17.220;2024-02-21T06:53:44;31;27;23
54021;PMS7003;39936;51.058;17.220;2024-02-21T06:57:09;30;29;25
54021;PMS7003;39936;51.058;17.220;2024-02-21T07:00:30;5;5;4
54021;PMS7003;39936;51.058;17.220;2024-02-21T07:03:59;22;21;19
54021;PMS7003;39936;51.058;17.220;2024-02-21T07:07:34;29;27;23
54021;PMS7003;39936;51.058;17.220;2024-02-21T07:11:00;29;28;24
54021;PMS7003;39936;51.058;17.220;2024-02-21T07:14:29;22;22;20
54021;PMS7003;39936;51.058;17.220;2024-02-21T07:17:53;3;3;2
54021;PMS7003;39936;51.058;17.220;2024-02-21T07:21:14;27;27;24
54021;PMS7003;39936;51.058;17.220;2024-02-21T07:25:09;29;29;27
54021;PMS7003;39936;51.058;17.220;2024-02-21T07:28:35;107;104;100
54021;PMS7003;39936;51.058;17.220;2024-02-21T07:32:42;183;181;180
54021;PMS7003;39936;51.058;17.220;2024-02-21T07:36:42;115;112;109
54021;PMS7003;39936;51.058;17.220;2024-02-21T07:43:40;19;17;16
54021;PMS7003;39936;51.058;17.220;2024-02-21T07:47:30;7;7;7
54021;PMS7003;39936;51.058;17.220;2024-02-21T07:50:55;3;3;3
54021;PMS7003;39936;51.058;17.220;2024-02-21T07:54:14;13;12;12
54021;PMS7003;39936;51.058;17.220;2024-02-21T07:57:32;10;9;9
54021;PMS7003;39936;51.058;17.220;2024-02-21T08:01:17;13;12;11
54021;PMS7003;39936;51.058;17.220;2024-02-21T08:04:40;28;28;28
54021;PMS7003;39936;51.058;17.220;2024-02-21T08:08:44;22;22;22
54021;PMS7003;39936;51.058;17.220;2024-02-21T08:12:25;31;31;31
54021;PMS7003;39936;51.058;17.220;2024-02-21T08:16:28;25;25;25
54021;PMS7003;39936;51.058;17.220;2024-02-21T08:19:44;15;14;14
54021;PMS7003;39936;51.058;17.220;2024-02-21T08:23:09;4;4;4
54021;PMS7003;39936;51.058;17.220;2024-02-21T08:26:28;3;3;3
54021;PMS7003;39936;51.058;17.220;2024-02-21T08:29:53;0;0;0
54021;PMS7003;39936;51.058;17.220;2024-02-21T08:33:33;2;2;2
54021;PMS7003;39936;51.058;17.220;2024-02-21T08:36:52;17;16;16
54021;PMS7003;39936;51.058;17.220;2024-02-21T08:40:15;18;17;17
54021;PMS7003;39936;51.058;17.220;2024-02-21T08:43:41;3;3;2
54021;PMS7003;39936;51.058;17.220;2024-02-21T08:47:01;8;7;6
54021;PMS7003;39936;51.058;17.220;2024-02-21T08:50:36;3;3;3
54021;PMS7003;39936;51.058;17.220;2024-02-21T08:53:59;0;0;0
54021;PMS7003;39936;51.058;17.220;2024-02-21T08:57:17;0;0;0
54021;PMS7003;39936;51.058;17.220;2024-02-21T09:00:39;0;0;0
54021;PMS7003;39936;51.058;17.220;2024-02-21T09:03:58;0;0;0
54021;PMS7003;39936;51.058;17.220;2024-02-21T09:07:37;280;280;279
54021;PMS7003;39936;51.058;17.220;2024-02-21T09:10:58;273;273;273
54021;PMS7003;39936;51.058;17.220;2024-02-21T09:14:20;189;188;186
54021;PMS7003;39936;51.058;17.220;2024-02-21T09:17:46;116;116;114
54021;PMS7003;39936;51.058;17.220;2024-02-21T09:21:07;136;136;135
54021;PMS7003;39936;51.058;17.220;2024-02-21T09:24:53;56;56;53
54021;PMS7003;39936;51.058;17.220;2024-02-21T09:28:15;46;44;44
54021;PMS7003;39936;51.058;17.220;2024-02-21T09:31:33;44;41;39
54021;PMS7003;39936;51.058;17.220;2024-02-21T09:35:29;152;151;150
54021;PMS7003;39936;51.058;17.220;2024-02-21T09:39:20;77;75;72
54021;PMS7003;39936;51.058;17.220;2024-02-21T09:42:46;74;72;69
54021;PMS7003;39936;51.058;17.220;2024-02-21T09:46:16;75;74;71
54021;PMS7003;39936;51.058;17.220;2024-02-21T09:49:34;45;45;44
54021;PMS7003;39936;51.058;17.220;2024-02-21T09:52:56;29;28;27
54021;PMS7003;39936;51.058;17.220;2024-02-21T09:56:45;70;66;63
54021;PMS7003;39936;51.058;17.220;2024-02-21T10:00:44;47;42;41
54021;PMS7003;39936;51.058;17.220;2024-02-21T10:03:56;48;48;48
54021;PMS7003;39936;51.058;17.220;2024-02-21T10:07:10;7;7;5
54021;PMS7003;39936;51.058;17.220;2024-02-21T10:10:28;0;0;0
54021;PMS7003;39936;51.058;17.220;2024-02-21T10:14:09;0;0;0
54021;PMS7003;39936;51.058;17.220;2024-02-21T10:17:26;14;13;12
54021;PMS7003;39936;51.058;17.220;2024-02-21T10:21:00;44;44;44
54021;PMS7003;39936;51.058;17.220;2024-02-21T10:24:27;38;37;36
54021;PMS7003;39936;51.058;17.220;2024-02-21T10:27:48;60;58;56
54021;PMS7003;39936;51.058;17.220;2024-02-21T10:31:22;81;79;75
54021;PMS7003;39936;51.058;17.220;2024-02-21T10:35:03;73;72;68
54021;PMS7003;39936;51.058;17.220;2024-02-21T10:38:29;93;91;87
54021;PMS7003;39936;51.058;17.220;2024-02-21T10:41:55;132;131;130
54021;PMS7003;39936;51.058;17.220;2024-02-21T10:45:34;303;303;303
54021;PMS7003;39936;51.058;17.220;2024-02-21T10:49:11;281;281;281
54021;PMS7003;39936;51.058;17.220;2024-02-21T10:53:01;259;259;259
54021;PMS7003;39936;51.058;17.220;2024-02-21T10:56:52;201;200;199
54021;PMS7003;39936;51.058;17.220;2024-02-21T11:01:07;116;115;113
54021;PMS7003;39936;51.058;17.220;2024-02-21T11:04:24;70;66;64
54021;PMS7003;39936;51.058;17.220;2024-02-21T11:07:51;37;35;32
54021;PMS7003;39936;51.058;17.220;2024-02-21T11:11:05;56;55;54
54021;PMS7003;39936;51.058;17.220;2024-02-21T11:14:26;44;44;44
54021;PMS7003;39936;51.058;17.220;2024-02-21T11:21:39;18;18;18
54021;PMS7003;39936;51.058;17.220;2024-02-21T11:25:06;20;20;20
54021;PMS7003;39936;51.058;17.220;2024-02-21T11:28:28;20;20;20
54021;PMS7003;39936;51.058;17.220;2024-02-21T11:31:52;21;21;21
54021;PMS7003;39936;51.058;17.220;2024-02-21T11:38:44;14;13;13
54021;PMS7003;39936;51.058;17.220;2024-02-21T11:42:26;6;6;5
54021;PMS7003;39936;51.058;17.220;2024-02-21T11:45:42;20;20;20
54021;PMS7003;39936;51.058;17.220;2024-02-21T11:49:02;15;14;13
54021;PMS7003;39936;51.058;17.220;2024-02-21T11:52:33;0;0;0
54021;PMS7003;39936;51.058;17.220;2024-02-21T11:56:05;0;0;0
54021;PMS7003;39936;51.058;17.220;2024-02-21T11:59:32;0;0;0
54021;PMS7003;39936;51.058;17.220;2024-02-21T12:03:19;1;1;1
54021;PMS7003;39936;51.058;17.220;2024-02-21T12:06:39;0;0;0
54021;PMS7003;39936;51.058;17.220;2024-02-21T12:10:01;0;0;0
54021;PMS7003;39936;51.058;17.220;2024-02-21T12:13:22;0;0;0
54021;PMS7003;39936;51.058;17.220;2024-02-21T12:17:02;0;0;0
54021;PMS7003;39936;51.058;17.220;2024-02-21T12:20:25;0;0;0
54021;PMS7003;39936;51.058;17.220;2024-02-21T12:23:44;0;0;0
54021;PMS7003;39936;51.058;17.220;2024-02-21T12:27:52;0;0;0
54021;PMS7003;39936;51.058;17.220;2024-02-21T12:31:11;0;0;0
54021;PMS7003;39936;51.058;17.220;2024-02-21T12:34:30;0;0;0
54021;PMS7003;39936;51.058;17.220;2024-02-21T12:37:54;0;0;0
54021;PMS7003;39936;51.058;17.220;2024-02-21T12:41:17;0;0;0
54021;PMS7003;39936;51.058;17.220;2024-02-21T12:44:43;6;5;5
54021;PMS7003;39936;51.058;17.220;2024-02-21T12:52:51;3;3;3
54021;PMS7003;39936;51.058;17.220;2024-02-21T12:56:30;5;5;4
54021;PMS7003;39936;51.058;17.220;2024-02-21T12:59:50;0;0;0
54021;PMS7003;39936;51.058;17.220;2024-02-21T13:03:13;1;1;1
54021;PMS7003;39936;51.058;17.220;2024-02-21T13:06:33;1;1;1
54021;PMS7003;39936;51.058;17.220;2024-02-21T13:10:07;0;0;0
54021;PMS7003;39936;51.058;17.220;2024-02-21T13:13:46;0;0;0
54021;PMS7003;39936;51.058;17.220;2024-02-21T13:17:41;0;0;0
54021;PMS7003;39936;51.058;17.220;2024-02-21T13:21:21;4;4;4
54021;PMS7003;39936;51.058;17.220;2024-02-21T13:25:05;0;0;0
54021;PMS7003;39936;51.058;17.220;2024-02-21T13:28:52;3;3;3
54021;PMS7003;39936;51.058;17.220;2024-02-21T13:32:34;0;0;0
54021;PMS7003;39936;51.058;17.220;2024-02-21T13:35:53;0;0;0
54021;PMS7003;39936;51.058;17.220;2024-02-21T13:39:24;0;0;0
54021;PMS7003;39936;51.058;17.220;2024-02-21T13:42:43;0;0;0
54021;PMS7003;39936;51.058;17.220;2024-02-21T13:46:17;4;4;4
54021;PMS7003;39936;51.058;17.220;2024-02-21T13:50:07;0;0;0
54021;PMS7003;39936;51.058;17.220;2024-02-21T13:53:29;0;0;0
54021;PMS7003;39936;51.058;17.220;2024-02-21T13:56:49;0;0;0
54021;PMS7003;39936;51.058;17.220;2024-02-21T14:00:07;0;0;0
54021;PMS7003;39936;51.058;17.220;2024-02-21T14:03:44;0;0;0
54021;PMS7003;39936;51.058;17.220;2024-02-21T14:07:03;0;0;0
54021;PMS7003;39936;51.058;17.220;2024-02-21T14:14:51;0;0;0
54021;PMS7003;39936;51.058;17.220;2024-02-21T14:18:18;3;3;3
54021;PMS7003;39936;51.058;17.220;2024-02-21T14:21:41;8;8;7
54021;PMS7003;39936;51.058;17.220;2024-02-21T14:25:42;0;0;0
54021;PMS7003;39936;51.058;17.220;2024-02-21T14:29:08;2;2;2
54021;PMS7003;39936;51.058;17.220;2024-02-21T14:32:50;0;0;0
54021;PMS7003;39936;51.058;17.220;2024-02-21T14:36:55;0;0;0
54021;PMS7003;39936;51.058;17.220;2024-02-21T14:40:14;0;0;0
54021;PMS7003;39936;51.058;17.220;2024-02-21T14:43:56;0;0;0
54021;PMS7003;39936;51.058;17.220;2024-02-21T14:47:18;0;0;0
54021;PMS7003;39936;51.058;17.220;2024-02-21T14:50:41;0;0;0
54021;PMS7003;39936;51.058;17.220;2024-02-21T14:54:01;0;0;0
54021;PMS7003;39936;51.058;17.220;2024-02-21T14:57:23;0;0;0
54021;PMS7003;39936;51.058;17.220;2024-02-21T15:01:09;0;0;0
54021;PMS7003;39936;51.058;17.220;2024-02-21T15:04:30;0;0;0
54021;PMS7003;39936;51.058;17.220;2024-02-21T15:07:55;0;0;0
54021;PMS7003;39936;51.058;17.220;2024-02-21T15:11:18;0;0;0
54021;PMS7003;39936;51.058;17.220;2024-02-21T15:14:41;0;0;0
54021;PMS7003;39936;51.058;17.220;2024-02-21T15:18:21;0;0;0
54021;PMS7003;39936;51.058;17.220;2024-02-21T15:21:40;0;0;0
54021;PMS7003;39936;51.058;17.220;2024-02-21T15:25:00;0;0;0
54021;PMS7003;39936;51.058;17.220;2024-02-21T15:28:46;0;0;0
54021;PMS7003;39936;51.058;17.220;2024-02-21T15:32:06;0;0;0
54021;PMS7003;39936;51.058;17.220;2024-02-21T15:35:36;2;2;2
54021;PMS7003;39936;51.058;17.220;2024-02-21T15:38:52;0;0;0
54021;PMS7003;39936;51.058;17.220;2024-02-21T15:42:17;6;6;6
54021;PMS7003;39936;51.058;17.220;2024-02-21T15:45:38;0;0;0
54021;PMS7003;39936;51.058;17.220;2024-02-21T15:49:09;0;0;0
54021;PMS7003;39936;51.058;17.220;2024-02-21T15:52:26;0;0;0
54021;PMS7003;39936;51.058;17.220;2024-02-21T15:55:48;0;0;0
54021;PMS7003;39936;51.058;17.220;2024-02-21T15:59:05;0;0;0
54021;PMS7003;39936;51.058;17.220;2024-02-21T16:02:26;0;0;0
54021;PMS7003;39936;51.058;17.220;2024-02-21T16:05:50;0;0;0
54021;PMS7003;39936;51.058;17.220;2024-02-21T16:09:26;0;0;0
54021;PMS7003;39936;51.058;17.220;2024-02-21T16:13:08;0;0;0
54021;PMS7003;39936;51.058;17.220;2024-02-21T16:16:29;0;0;0
54021;PMS7003;39936;51.058;17.220;2024-02-21T16:20:08;2;2;2
54021;PMS7003;39936;51.058;17.220;2024-02-21T16:23:49;0;0;0
54021;PMS7003;39936;51.058;17.220;2024-02-21T16:27:09;1;1;1
54021;PMS7003;39936;51.058;17.220;2024-02-21T16:30:51;0;0;0
54021;PMS7003;39936;51.058;17.220;2024-02-21T16:34:18;5;5;5
54021;PMS7003;39936;51.058;17.220;2024-02-21T16:38:00;0;0;0
54021;PMS7003;39936;51.058;17.220;2024-02-21T16:42:15;0;0;0
54021;PMS7003;39936;51.058;17.220;2024-02-21T16:46:28;2;2;1
54021;PMS7003;39936;51.058;17.220;2024-02-21T16:50:07;1;1;1
54021;PMS7003;39936;51.058;17.220;2024-02-21T16:55:35;0;0;0
54021;PMS7003;39936;51.058;17.220;2024-02-21T16:59:08;0;0;0
54021;PMS7003;39936;51.058;17.220;2024-02-21T17:02:32;0;0;0
54021;PMS7003;39936;51.058;17.220;2024-02-21T17:06:15;3;3;3
54021;PMS7003;39936;51.058;17.220;2024-02-21T17:09:40;0;0;0
54021;PMS7003;39936;51.058;17.220;2024-02-21T17:13:16;0;0;0
54021;PMS7003;39936;51.058;17.220;2024-02-21T17:17:16;0;0;0
54021;PMS7003;39936;51.058;17.220;2024-02-21T17:20:32;0;0;0
54021;PMS7003;39936;51.058;17.220;2024-02-21T17:23:55;8;7;7
54021;PMS7003;39936;51.058;17.220;2024-02-21T17:27:09;56;56;56
54021;PMS7003;39936;51.058;17.220;2024-02-21T17:30:35;15;13;12
54021;PMS7003;39936;51.058;17.220;2024-02-21T17:34:07;220;218;215
54021;PMS7003;39936;51.058;17.220;2024-02-21T17:37:36;280;279;279
54021;PMS7003;39936;51.058;17.220;2024-02-21T17:41:15;4;4;3
54021;PMS7003;39936;51.058;17.220;2024-02-21T17:44:59;4;4;3
54021;PMS7003;39936;51.058;17.220;2024-02-21T17:48:35;49;49;49
54021;PMS7003;39936;51.058;17.220;2024-02-21T17:52:17;29;29;28
54021;PMS7003;39936;51.058;17.220;2024-02-21T17:55:53;395;395;395
54021;PMS7003;39936;51.058;17.220;2024-02-21T17:59:39;267;267;267
54021;PMS7003;39936;51.058;17.220;2024-02-21T18:03:04;318;318;318
54021;PMS7003;39936;51.058;17.220;2024-02-21T18:06:30;245;243;242
54021;PMS7003;39936;51.058;17.220;2024-02-21T18:10:01;290;290;289
54021;PMS7003;39936;51.058;17.220;2024-02-21T18:13:46;325;325;325
54021;PMS7003;39936;51.058;17.220;2024-02-21T18:17:12;304;304;304
54021;PMS7003;39936;51.058;17.220;2024-02-21T18:20:53;196;196;196
54021;PMS7003;39936;51.058;17.220;2024-02-21T18:24:41;154;154;153
54021;PMS7003;39936;51.058;17.220;2024-02-21T18:28:13;0;0;0
54021;PMS7003;39936;51.058;17.220;2024-02-21T18:31:34;0;0;0
54021;PMS7003;39936;51.058;17.220;2024-02-21T18:35:01;0;0;0
54021;PMS7003;39936;51.058;17.220;2024-02-21T18:38:39;0;0;0
54021;PMS7003;39936;51.058;17.220;2024-02-21T18:42:35;0;0;0
54021;PMS7003;39936;51.058;17.220;2024-02-21T18:46:08;0;0;0
54021;PMS7003;39936;51.058;17.220;2024-02-21T18:49:38;5;5;5
54021;PMS7003;39936;51.058;17.220;2024-02-21T18:53:16;0;0;0
54021;PMS7003;39936;51.058;17.220;2024-02-21T18:56:57;0;0;0
54021;PMS7003;39936;51.058;17.220;2024-02-21T19:01:14;4;1;0
54021;PMS7003;39936;51.058;17.220;2024-02-21T19:04:39;3;3;3
54021;PMS7003;39936;51.058;17.220;2024-02-21T19:08:16;1;1;0
54021;PMS7003;39936;51.058;17.220;2024-02-21T19:12:03;2;2;1
54021;PMS7003;39936;51.058;17.220;2024-02-21T19:15:52;5;5;4
54021;PMS7003;39936;51.058;17.220;2024-02-21T19:19:42;0;0;0
54021;PMS7003;39936;51.058;17.220;2024-02-21T19:23:06;2;2;2
54021;PMS7003;39936;51.058;17.220;2024-02-21T19:26:52;1;1;1
54021;PMS7003;39936;51.058;17.220;2024-02-21T19:30:36;2;2;2
54021;PMS7003;39936;51.058;17.220;2024-02-21T19:34:35;4;4;4
54021;PMS7003;39936;51.058;17.220;2024-02-21T19:38:11;5;5;4
54021;PMS7003;39936;51.058;17.220;2024-02-21T19:41:30;1;1;1
54021;PMS7003;39936;51.058;17.220;2024-02-21T19:45:10;7;7;5
54021;PMS7003;39936;51.058;17.220;2024-02-21T19:48:32;1;0;0
54021;PMS7003;39936;51.058;17.220;2024-02-21T19:51:55;0;0;0
54021;PMS7003;39936;51.058;17.220;2024-02-21T19:55:35;3;3;3
54021;PMS7003;39936;51.058;17.220;2024-02-21T19:58:56;1;1;0
54021;PMS7003;39936;51.058;17.220;2024-02-21T20:02:20;4;2;2
54021;PMS7003;39936;51.058;17.220;2024-02-21T20:05:41;6;6;5
54021;PMS7003;39936;51.058;17.220;2024-02-21T20:09:02;0;0;0
54021;PMS7003;39936;51.058;17.220;2024-02-21T20:12:29;1;1;1
54021;PMS7003;39936;51.058;17.220;2024-02-21T20:15:55;8;8;8
54021;PMS7003;39936;51.058;17.220;2024-02-21T20:19:34;5;2;2
54021;PMS7003;39936;51.058;17.220;2024-02-21T20:22:59;3;3;3
54021;PMS7003;39936;51.058;17.220;2024-02-21T20:26:21;6;6;5
54021;PMS7003;39936;51.058;17.220;2024-02-21T20:29:48;4;4;3
54021;PMS7003;39936;51.058;17.220;2024-02-21T20:33:08;12;11;9
54021;PMS7003;39936;51.058;17.220;2024-02-21T20:36:29;1;1;1
54021;PMS7003;39936;51.058;17.220;2024-02-21T20:39:55;1;1;1
54021;PMS7003;39936;51.058;17.220;2024-02-21T20:43:21;14;14;11
54021;PMS7003;39936;51.058;17.220;2024-02-21T20:46:41;14;12;12
54021;PMS7003;39936;51.058;17.220;2024-02-21T20:50:00;0;0;0
54021;PMS7003;39936;51.058;17.220;2024-02-21T20:53:21;4;4;3
54021;PMS7003;39936;51.058;17.220;2024-02-21T20:56:43;0;0;0
54021;PMS7003;39936;51.058;17.220;2024-02-21T21:00:36;3;3;3
54021;PMS7003;39936;51.058;17.220;2024-02-21T21:03:57;4;4;3
54021;PMS7003;39936;51.058;17.220;2024-02-21T21:07:38;3;3;2
54021;PMS7003;39936;51.058;17.220;2024-02-21T21:11:04;4;3;3
54021;PMS7003;39936;51.058;17.220;2024-02-21T21:14:27;4;4;2
54021;PMS7003;39936;51.058;17.220;2024-02-21T21:17:47;0;0;0
54021;PMS7003;39936;51.058;17.220;2024-02-21T21:21:05;0;0;0
54021;PMS7003;39936;51.058;17.220;2024-02-21T21:25:01;0;0;0
54021;PMS7003;39936;51.058;17.220;2024-02-21T21:28:33;8;7;6
54021;PMS7003;39936;51.058;17.220;2024-02-21T21:32:46;2;2;2
54021;PMS7003;39936;51.058;17.220;2024-02-21T21:36:10;18;18;16
54021;PMS7003;39936;51.058;17.220;2024-02-21T21:39:34;2;2;2
54021;PMS7003;39936;51.058;17.220;2024-02-21T21:42:57;2;2;2
54021;PMS7003;39936;51.058;17.220;2024-02-21T21:46:36;2;2;2
54021;PMS7003;39936;51.058;17.220;2024-02-21T21:50:03;4;3;2
54021;PMS7003;39936;51.058;17.220;2024-02-21T21:53:25;0;0;0
54021;PMS7003;39936;51.058;17.220;2024-02-21T22:00:53;1;1;0
54021;PMS7003;39936;51.058;17.220;2024-02-21T22:04:18;1;1;1
54021;PMS7003;39936;51.058;17.220;2024-02-21T22:07:47;0;0;0
54021;PMS7003;39936;51.058;17.220;2024-02-21T22:11:05;0;0;0
54021;PMS7003;39936;51.058;17.220;2024-02-21T22:14:34;0;0;0
54021;PMS7003;39936;51.058;17.220;2024-02-21T22:18:31;0;0;0
54021;PMS7003;39936;51.058;17.220;2024-02-21T22:22:25;6;6;5
54021;PMS7003;39936;51.058;17.220;2024-02-21T22:26:09;6;6;5
54021;PMS7003;39936;51.058;17.220;2024-02-21T22:29:30;0;0;0
54021;PMS7003;39936;51.058;17.220;2024-02-21T22:32:58;6;5;4
54021;PMS7003;39936;51.058;17.220;2024-02-21T22:36:22;0;0;0
54021;PMS7003;39936;51.058;17.220;2024-02-21T22:39:42;0;0;0
54021;PMS7003;39936;51.058;17.220;2024-02-21T22:43:45;1;1;1
54021;PMS7003;39936;51.058;17.220;2024-02-21T22:51:09;0;0;0
54021;PMS7003;39936;51.058;17.220;2024-02-21T22:54:51;1;1;1
54021;PMS7003;39936;51.058;17.220;2024-02-21T22:59:18;0;0;0
54021;PMS7003;39936;51.058;17.220;2024-02-21T23:02:48;1;1;0
54021;PMS7003;39936;51.058;17.220;2024-02-21T23:06:17;0;0;0
54021;PMS7003;39936;51.058;17.220;2024-02-21T23:09:37;0;0;0
54021;PMS7003;39936;51.058;17.220;2024-02-21T23:13:35;0;0;0
54021;PMS7003;39936;51.058;17.220;2024-02-21T23:16:55;3;3;3
54021;PMS7003;39936;51.058;17.220;2024-02-21T23:21:04;5;5;5
54021;PMS7003;39936;51.058;17.220;2024-02-21T23:24:45;0;0;0
54021;PMS7003;39936;51.058;17.220;2024-02-21T23:28:42;0;0;0
54021;PMS7003;39936;51.058;17.220;2024-02-21T23:32:16;5;4;3
54021;PMS7003;39936;51.058;17.220;2024-02-21T23:35:54;3;3;3
54021;PMS7003;39936;51.058;17.220;2024-02-21T23:39:36;3;3;2
54021;PMS7003;39936;51.058;17.220;2024-02-21T23:43:49;0;0;0
54021;PMS7003;39936;51.058;17.220;2024-02-21T23:47:50;0;0;0